Moby Aki — IBVV — position and weather

sailwx.info

Track history (hours):
 
Tides and Currents Weather Stations Pressure Air Temp Water Temp Dewpoint Dewpoint Depression Visibility Wind Speed Wind Dir Waves Ship Positions

Moby Aki

Last reported at 2014-Aug-28 02:33 UTC. Time now 2014-Aug-28 03:20 UTC.
Position N 43°07' E 010°06'.

Length 175 m; draft 6.9 m.

Type: Passenger vessel. MMSI: 247132400.

Date/timePositionNaut miles runAvg speedWind from/ knotsBaromVisibWave heightAir tempDewpointWater temp
2014-Aug-28 02:33N 43°07' E 010°06'13422.3
2014-Aug-27 20:33N 40°55' E 009°32'0 0.2
2014-Aug-27 18:31N 40°55' E 009°31'5618.8
2014-Aug-27 15:32N 41°44' E 010°08'2926.1
2014-Aug-27 14:26N 42°11' E 010°23'2326.0
2014-Aug-27 13:33N 42°33' E 010°30'20 9.4
2014-Aug-27 11:27N 42°52' E 010°34'12116.4
2014-Aug-27 04:06N 40°58' E 009°40'1120.4
2014-Aug-27 03:33N 41°09' E 009°45'10520.0
2014-Aug-26 22:19N 42°53' E 010°01'1519.9
2014-Aug-26 21:33N 43°08' E 010°05'2020.0
2014-Aug-26 20:33N 43°27' E 010°12'7 7.0
2014-Aug-26 19:31N 43°33' E 010°18'0 0.0
2014-Aug-26 18:31N 43°33' E 010°18'0 0.0
2014-Aug-26 17:28N 43°33' E 010°18'0 0.1
2014-Aug-26 16:34N 43°33' E 010°18'1717.5
2014-Aug-26 15:33N 43°17' E 010°09'2323.5
2014-Aug-26 14:34N 42°54' E 010°01'12122.6
2014-Aug-26 09:13N 40°55' E 009°33'1 1.4
2014-Aug-26 08:14N 40°55' E 009°31'0 0.0
2014-Aug-26 07:32N 40°55' E 009°31'0 0.0
2014-Aug-26 05:32N 40°55' E 009°31'11721.9
2014-Aug-26 00:12N 42°50' E 010°01'1726.8
2014-Aug-25 23:33N 43°07' E 010°06'2625.6
2014-Aug-25 22:33N 43°32' E 010°15'2 2.4
2014-Aug-25 21:33N 43°33' E 010°18'7 7.4
2014-Aug-25 20:33N 43°27' E 010°13'2625.1
2014-Aug-25 19:31N 43°01' E 010°05'12824.6
2014-Aug-25 14:18N 40°55' E 009°33'2 1.4
2014-Aug-25 13:10N 40°55' E 009°31'0 0.3
2014-Aug-25 12:32N 40°55' E 009°32'12524.3
2014-Aug-25 07:22N 42°59' E 010°02'2227.3
2014-Aug-25 06:34N 43°20' E 010°08'1514.2
2014-Aug-25 05:32N 43°33' E 010°18'0 0.0
2014-Aug-25 04:32N 43°33' E 010°18'6 5.7
2014-Aug-25 03:34N 43°29' E 010°13'2323.3
2014-Aug-25 02:34N 43°06' E 010°06'13322.2
2014-Aug-24 20:33N 40°55' E 009°32'1 0.8
2014-Aug-24 19:31N 40°55' E 009°31'0 0.0
2014-Aug-24 18:28N 40°55' E 009°31'11115.3
2014-Aug-24 11:16N 42°37' E 010°31'11122.2
2014-Aug-24 06:17N 40°55' E 009°31'0 0.0
2014-Aug-24 05:30N 40°55' E 009°31'12623.4
2014-Aug-24 00:06N 42°59' E 010°03'1426.4
2014-Aug-23 23:34N 43°13' E 010°08'2121.3
2014-Aug-23 22:33N 43°33' E 010°18'0 0.0
2014-Aug-23 21:32N 43°33' E 010°18'4 4.1
2014-Aug-23 20:34N 43°30' E 010°14'2525.1
2014-Aug-23 19:34N 43°06' E 010°06'24 1.5
2014-Aug-23 03:34N 43°29' E 010°13'2423.9
2014-Aug-23 02:34N 43°06' E 010°05'13322.2
2014-Aug-22 20:33N 40°55' E 009°32'0 0.2
2014-Aug-22 18:31N 40°55' E 009°31'8420.3
2014-Aug-22 14:21N 42°11' E 010°23'2226.5
2014-Aug-22 13:30N 42°32' E 010°30'10614.9
2014-Aug-22 06:24N 40°55' E 009°33'1 1.5
2014-Aug-22 05:32N 40°55' E 009°31'11521.2
2014-Aug-22 00:05N 42°49' E 009°59'1426.4
2014-Aug-21 23:33N 43°02' E 010°05'2626.4
2014-Aug-21 22:34N 43°28' E 010°13'7 6.5
2014-Aug-21 21:33N 43°33' E 010°18'0 0.3
2014-Aug-21 20:33N 43°33' E 010°18'2322.5
2014-Aug-21 19:34N 43°12' E 010°07'11726.0
2014-Aug-21 15:04N 41°16' E 009°44'2222.7
2014-Aug-21 14:07N 40°55' E 009°35'2 1.1
2014-Aug-21 12:33N 40°55' E 009°33'12324.6
2014-Aug-21 07:33N 42°57' E 010°02'2626.5
2014-Aug-21 06:34N 43°22' E 010°11'1212.0
2014-Aug-21 05:32N 43°33' E 010°18'0 0.0
2014-Aug-21 04:32N 43°33' E 010°18'5 5.1
2014-Aug-21 03:34N 43°29' E 010°14'2423.5
2014-Aug-21 02:33N 43°06' E 010°06'13322.2
2014-Aug-20 20:33N 40°55' E 009°32'1 0.6
2014-Aug-20 19:12N 40°55' E 009°31'0 0.0
2014-Aug-20 18:33N 40°55' E 009°31'8419.8
2014-Aug-20 14:18N 42°10' E 010°23'2126.6
2014-Aug-20 13:31N 42°30' E 010°29'10314.7
2014-Aug-20 06:29N 40°56' E 009°35'2 0.8
2014-Aug-20 04:33N 40°55' E 009°33'1816.5
2014-Aug-20 03:29N 41°11' E 009°44'11819.9
2014-Aug-19 21:33N 43°08' E 010°05'2020.0
2014-Aug-19 20:34N 43°27' E 010°12'7 6.6
2014-Aug-19 19:30N 43°33' E 010°18'0 0.0
2014-Aug-19 18:32N 43°33' E 010°18'0 0.0
2014-Aug-19 17:32N 43°33' E 010°18'0 0.0
2014-Aug-19 16:32N 43°33' E 010°18'4 4.0
2014-Aug-19 15:33N 43°30' E 010°14'2525.3
2014-Aug-19 14:33N 43°05' E 010°06'13224.6
2014-Aug-19 09:10N 40°55' E 009°33'1 0.8
2014-Aug-19 07:33N 40°55' E 009°31'0 0.0
2014-Aug-19 06:33N 40°55' E 009°31'0 0.0
2014-Aug-19 05:18N 40°55' E 009°31'7 7.4
2014-Aug-19 04:19N 40°59' E 009°40'12425.9
2014-Aug-18 23:32N 43°01' E 010°05'2526.1
2014-Aug-18 22:33N 43°26' E 010°12'8 8.1
2014-Aug-18 21:33N 43°33' E 010°18'0 0.2
2014-Aug-18 20:33N 43°33' E 010°18'2222.1
2014-Aug-18 19:34N 43°12' E 010°08'14022.9
2014-Aug-18 13:27N 40°55' E 009°31'0 0.0
2014-Aug-18 12:33N 40°55' E 009°31'12824.5
2014-Aug-18 07:19N 43°01' E 010°04'2026.4
2014-Aug-18 06:34N 43°21' E 010°10'1412.5
2014-Aug-18 05:28N 43°33' E 010°18'0 0.0
2014-Aug-18 04:33N 43°33' E 010°18'5 5.4
2014-Aug-18 03:34N 43°29' E 010°14'  
Track history (hours):
 
Tides and Currents Weather Stations Pressure Air Temp Water Temp Dewpoint Dewpoint Depression Visibility Wind Speed Wind Dir Waves Ship Positions

Moby Aki

Last reported at 2014-Aug-28 02:33 UTC. Time now 2014-Aug-28 03:20 UTC.
Position N 43°07' E 010°06'.

Length 175 m; draft 6.9 m.

Type: Passenger vessel. MMSI: 247132400.

Date/timePositionNaut miles runAvg speedWind from/ knotsBaromVisibWave heightAir tempDewpointWater temp
2014-Aug-28 02:33N 43°07' E 010°06'13422.3
2014-Aug-27 20:33N 40°55' E 009°32'0 0.2
2014-Aug-27 18:31N 40°55' E 009°31'5618.8
2014-Aug-27 15:32N 41°44' E 010°08'2926.1
2014-Aug-27 14:26N 42°11' E 010°23'2326.0
2014-Aug-27 13:33N 42°33' E 010°30'20 9.4
2014-Aug-27 11:27N 42°52' E 010°34'12116.4
2014-Aug-27 04:06N 40°58' E 009°40'1120.4
2014-Aug-27 03:33N 41°09' E 009°45'10520.0
2014-Aug-26 22:19N 42°53' E 010°01'1519.9
2014-Aug-26 21:33N 43°08' E 010°05'2020.0
2014-Aug-26 20:33N 43°27' E 010°12'7 7.0
2014-Aug-26 19:31N 43°33' E 010°18'0 0.0
2014-Aug-26 18:31N 43°33' E 010°18'0 0.0
2014-Aug-26 17:28N 43°33' E 010°18'0 0.1
2014-Aug-26 16:34N 43°33' E 010°18'1717.5
2014-Aug-26 15:33N 43°17' E 010°09'2323.5
2014-Aug-26 14:34N 42°54' E 010°01'12122.6
2014-Aug-26 09:13N 40°55' E 009°33'1 1.4
2014-Aug-26 08:14N 40°55' E 009°31'0 0.0
2014-Aug-26 07:32N 40°55' E 009°31'0 0.0
2014-Aug-26 05:32N 40°55' E 009°31'11721.9
2014-Aug-26 00:12N 42°50' E 010°01'1726.8
2014-Aug-25 23:33N 43°07' E 010°06'2625.6
2014-Aug-25 22:33N 43°32' E 010°15'2 2.4
2014-Aug-25 21:33N 43°33' E 010°18'7 7.4
2014-Aug-25 20:33N 43°27' E 010°13'2625.1
2014-Aug-25 19:31N 43°01' E 010°05'12824.6
2014-Aug-25 14:18N 40°55' E 009°33'2 1.4
2014-Aug-25 13:10N 40°55' E 009°31'0 0.3
2014-Aug-25 12:32N 40°55' E 009°32'12524.3
2014-Aug-25 07:22N 42°59' E 010°02'2227.3
2014-Aug-25 06:34N 43°20' E 010°08'1514.2
2014-Aug-25 05:32N 43°33' E 010°18'0 0.0
2014-Aug-25 04:32N 43°33' E 010°18'6 5.7
2014-Aug-25 03:34N 43°29' E 010°13'2323.3
2014-Aug-25 02:34N 43°06' E 010°06'13322.2
2014-Aug-24 20:33N 40°55' E 009°32'1 0.8
2014-Aug-24 19:31N 40°55' E 009°31'0 0.0
2014-Aug-24 18:28N 40°55' E 009°31'11115.3
2014-Aug-24 11:16N 42°37' E 010°31'11122.2
2014-Aug-24 06:17N 40°55' E 009°31'0 0.0
2014-Aug-24 05:30N 40°55' E 009°31'12623.4
2014-Aug-24 00:06N 42°59' E 010°03'1426.4
2014-Aug-23 23:34N 43°13' E 010°08'2121.3
2014-Aug-23 22:33N 43°33' E 010°18'0 0.0
2014-Aug-23 21:32N 43°33' E 010°18'4 4.1
2014-Aug-23 20:34N 43°30' E 010°14'2525.1
2014-Aug-23 19:34N 43°06' E 010°06'24 1.5
2014-Aug-23 03:34N 43°29' E 010°13'2423.9
2014-Aug-23 02:34N 43°06' E 010°05'13322.2
2014-Aug-22 20:33N 40°55' E 009°32'0 0.2
2014-Aug-22 18:31N 40°55' E 009°31'8420.3
2014-Aug-22 14:21N 42°11' E 010°23'2226.5
2014-Aug-22 13:30N 42°32' E 010°30'10614.9
2014-Aug-22 06:24N 40°55' E 009°33'1 1.5
2014-Aug-22 05:32N 40°55' E 009°31'11521.2
2014-Aug-22 00:05N 42°49' E 009°59'1426.4
2014-Aug-21 23:33N 43°02' E 010°05'2626.4
2014-Aug-21 22:34N 43°28' E 010°13'7 6.5
2014-Aug-21 21:33N 43°33' E 010°18'0 0.3
2014-Aug-21 20:33N 43°33' E 010°18'2322.5
2014-Aug-21 19:34N 43°12' E 010°07'11726.0
2014-Aug-21 15:04N 41°16' E 009°44'2222.7
2014-Aug-21 14:07N 40°55' E 009°35'2 1.1
2014-Aug-21 12:33N 40°55' E 009°33'12324.6
2014-Aug-21 07:33N 42°57' E 010°02'2626.5
2014-Aug-21 06:34N 43°22' E 010°11'1212.0
2014-Aug-21 05:32N 43°33' E 010°18'0 0.0
2014-Aug-21 04:32N 43°33' E 010°18'5 5.1
2014-Aug-21 03:34N 43°29' E 010°14'2423.5
2014-Aug-21 02:33N 43°06' E 010°06'13322.2
2014-Aug-20 20:33N 40°55' E 009°32'1 0.6
2014-Aug-20 19:12N 40°55' E 009°31'0 0.0
2014-Aug-20 18:33N 40°55' E 009°31'8419.8
2014-Aug-20 14:18N 42°10' E 010°23'2126.6
2014-Aug-20 13:31N 42°30' E 010°29'10314.7
2014-Aug-20 06:29N 40°56' E 009°35'2 0.8
2014-Aug-20 04:33N 40°55' E 009°33'1816.5
2014-Aug-20 03:29N 41°11' E 009°44'11819.9
2014-Aug-19 21:33N 43°08' E 010°05'2020.0
2014-Aug-19 20:34N 43°27' E 010°12'7 6.6
2014-Aug-19 19:30N 43°33' E 010°18'0 0.0
2014-Aug-19 18:32N 43°33' E 010°18'0 0.0
2014-Aug-19 17:32N 43°33' E 010°18'0 0.0
2014-Aug-19 16:32N 43°33' E 010°18'4 4.0
2014-Aug-19 15:33N 43°30' E 010°14'2525.3
2014-Aug-19 14:33N 43°05' E 010°06'13224.6
2014-Aug-19 09:10N 40°55' E 009°33'1 0.8
2014-Aug-19 07:33N 40°55' E 009°31'0 0.0
2014-Aug-19 06:33N 40°55' E 009°31'0 0.0
2014-Aug-19 05:18N 40°55' E 009°31'7 7.4
2014-Aug-19 04:19N 40°59' E 009°40'12425.9
2014-Aug-18 23:32N 43°01' E 010°05'2526.1
2014-Aug-18 22:33N 43°26' E 010°12'8 8.1
2014-Aug-18 21:33N 43°33' E 010°18'0 0.2
2014-Aug-18 20:33N 43°33' E 010°18'2222.1
2014-Aug-18 19:34N 43°12' E 010°08'14022.9
2014-Aug-18 13:27N 40°55' E 009°31'0 0.0
2014-Aug-18 12:33N 40°55' E 009°31'12824.5
2014-Aug-18 07:19N 43°01' E 010°04'2026.4
2014-Aug-18 06:34N 43°21' E 010°10'1412.5
2014-Aug-18 05:28N 43°33' E 010°18'0 0.0
2014-Aug-18 04:33N 43°33' E 010°18'5 5.4
2014-Aug-18 03:34N 43°29' E 010°14'  

Dump ship's entire track history